Lawton Fort Sill Regional Airport
KLAW : now visible

Airfield :











YOU CAN JOIN US ON...

 
LOGIN :

Register | Disclaimer

   EN    FR    IT 

 









Legend :    VFR   Marginal VFR   IFR   Intensive IFR   Very Intensive IFR
Visi :
Ceiling :
>= 8 km
>= 3000ft
5 to 8 km
1000 to 3000 ft
1500m to 5 km
500 to 1000 ft
800 to 1500m
200 to 500 ft
< 800m
< 200 ft
Symbols :   Thunderstorms  Fog  Heavy snow  Heavy precipitations  Wind > 20 kt






- Airport Elevation : 1110 ft


KLAW - Lawton Fort Sill Regional

CURRENT METAR :
  • 260453Z AUTO 10005KT 10SM CLR 17/12 A2991 RMK AO2 SLP120 T01720117

EXPIRED METARs :
  • 260353Z AUTO 11005KT 10SM CLR 17/12 A2992 RMK AO2 SLP126 T01720117
  • 260253Z AUTO 10005KT 10SM CLR 18/11 A2993 RMK AO2 SLP128 T01780111 50003

TAF KLAW
Valid from the 26 at 06:00 until the 27 at 06:00 UTC


260520Z 2606/2706 10005KT P6SM SKC WS020/17040KT
FM261300 14011KT P6SM OVC015
FM261500 15014G20KT P6SM OVC009
TEMPO 2615/2617 5SM BR OVC004
FM261700 17020G28KT P6SM BKN020
FM261900 16020G28KT P6SM SCT035
PROB30 2701/2705 4SM TSRA BKN035CB OVC100
KZFW FIR / North America



MET'MAP, your aeronautical weather chart ! - Copyright ORBIFLY December 2007 - Disclaimer

ORBIFLY MET'MAP TEAM :

Programming & Development : Alexandra Zaïnal
Concept & original design : Baudouin d'Aumeries
Assistance for programming : Marc-Olivier Méhu
Technical & hardware support : Manuel Goepfert

Contact : metmap@orbifly.com




SOURCES & CREDITS :

   NOAA       Earth
Advisory